sensor_id;sensor_type;location;lat;lon;timestamp;pressure;altitude;pressure_sealevel;temperature;humidity
45403;BME280;47427;51.976;5.326;2023-05-19T00:00:03;102707.63;;;8.62;87.86
45403;BME280;47427;51.976;5.326;2023-05-19T00:03:35;102703.53;;;8.52;88.37
45403;BME280;47427;51.976;5.326;2023-05-19T00:07:02;102694.66;;;8.50;88.30
45403;BME280;47427;51.976;5.326;2023-05-19T00:10:25;102705.94;;;8.49;89.12
45403;BME280;47427;51.976;5.326;2023-05-19T00:13:57;102701.41;;;8.46;89.19
45403;BME280;47427;51.976;5.326;2023-05-19T00:17:18;102705.66;;;8.44;89.67
45403;BME280;47427;51.976;5.326;2023-05-19T00:20:42;102692.03;;;8.37;89.92
45403;BME280;47427;51.976;5.326;2023-05-19T00:24:06;102689.66;;;8.40;90.24
45403;BME280;47427;51.976;5.326;2023-05-19T00:27:28;102687.41;;;8.33;90.29
45403;BME280;47427;51.976;5.326;2023-05-19T00:30:51;102679.56;;;8.33;90.60
45403;BME280;47427;51.976;5.326;2023-05-19T00:34:13;102690.22;;;8.22;91.61
45403;BME280;47427;51.976;5.326;2023-05-19T00:37:35;102689.25;;;8.20;92.54
45403;BME280;47427;51.976;5.326;2023-05-19T00:40:58;102690.75;;;8.17;92.17
45403;BME280;47427;51.976;5.326;2023-05-19T00:44:21;102690.34;;;8.11;93.14
45403;BME280;47427;51.976;5.326;2023-05-19T00:47:43;102678.75;;;8.07;93.58
45403;BME280;47427;51.976;5.326;2023-05-19T00:51:05;102671.25;;;7.98;93.57
45403;BME280;47427;51.976;5.326;2023-05-19T00:54:28;102681.69;;;7.98;94.38
45403;BME280;47427;51.976;5.326;2023-05-19T00:57:52;102683.09;;;7.93;95.28
45403;BME280;47427;51.976;5.326;2023-05-19T01:01:14;102688.91;;;7.89;95.64
45403;BME280;47427;51.976;5.326;2023-05-19T01:04:39;102675.25;;;7.80;96.46
45403;BME280;47427;51.976;5.326;2023-05-19T01:08:02;102686.59;;;7.80;97.05
45403;BME280;47427;51.976;5.326;2023-05-19T01:11:25;102683.69;;;7.76;98.30
45403;BME280;47427;51.976;5.326;2023-05-19T01:14:48;102689.72;;;7.75;98.92
45403;BME280;47427;51.976;5.326;2023-05-19T01:18:14;102702.34;;;7.69;100.00
45403;BME280;47427;51.976;5.326;2023-05-19T01:26:31;102690.69;;;7.64;99.51
45403;BME280;47427;51.976;5.326;2023-05-19T01:33:51;102679.50;;;7.53;100.00
45403;BME280;47427;51.976;5.326;2023-05-19T01:37:14;102674.09;;;7.50;100.00
45403;BME280;47427;51.976;5.326;2023-05-19T01:40:39;102669.34;;;7.44;100.00
45403;BME280;47427;51.976;5.326;2023-05-19T01:44:02;102668.56;;;7.45;100.00
45403;BME280;47427;51.976;5.326;2023-05-19T01:47:25;102665.50;;;7.39;100.00
45403;BME280;47427;51.976;5.326;2023-05-19T01:50:48;102661.78;;;7.35;100.00
45403;BME280;47427;51.976;5.326;2023-05-19T01:54:10;102665.09;;;7.33;100.00
45403;BME280;47427;51.976;5.326;2023-05-19T02:05:26;102653.09;;;7.23;100.00
45403;BME280;47427;51.976;5.326;2023-05-19T02:09:01;102661.75;;;7.22;100.00
45403;BME280;47427;51.976;5.326;2023-05-19T02:12:37;102652.00;;;7.20;100.00
45403;BME280;47427;51.976;5.326;2023-05-19T02:16:04;102652.47;;;7.14;100.00
45403;BME280;47427;51.976;5.326;2023-05-19T02:19:31;102658.69;;;7.16;100.00
45403;BME280;47427;51.976;5.326;2023-05-19T02:22:54;102660.41;;;7.15;100.00
45403;BME280;47427;51.976;5.326;2023-05-19T02:26:16;102649.78;;;7.12;100.00
45403;BME280;47427;51.976;5.326;2023-05-19T02:29:38;102657.47;;;7.11;100.00
45403;BME280;47427;51.976;5.326;2023-05-19T02:33:01;102658.38;;;7.11;100.00
45403;BME280;47427;51.976;5.326;2023-05-19T02:36:23;102639.56;;;7.04;100.00
45403;BME280;47427;51.976;5.326;2023-05-19T02:39:46;102640.28;;;7.01;100.00
45403;BME280;47427;51.976;5.326;2023-05-19T02:43:09;102645.41;;;7.00;100.00
45403;BME280;47427;51.976;5.326;2023-05-19T02:46:31;102643.00;;;7.03;100.00
45403;BME280;47427;51.976;5.326;2023-05-19T02:49:54;102624.41;;;6.98;100.00
45403;BME280;47427;51.976;5.326;2023-05-19T02:53:17;102641.28;;;7.03;100.00
45403;BME280;47427;51.976;5.326;2023-05-19T02:56:38;102632.34;;;7.00;100.00
45403;BME280;47427;51.976;5.326;2023-05-19T03:00:01;102626.41;;;6.89;100.00
45403;BME280;47427;51.976;5.326;2023-05-19T03:03:24;102626.50;;;6.90;100.00
45403;BME280;47427;51.976;5.326;2023-05-19T03:06:46;102631.81;;;6.92;100.00
45403;BME280;47427;51.976;5.326;2023-05-19T03:10:09;102609.97;;;6.78;100.00
45403;BME280;47427;51.976;5.326;2023-05-19T03:13:30;102621.75;;;6.85;100.00
45403;BME280;47427;51.976;5.326;2023-05-19T03:16:53;102625.38;;;6.87;100.00
45403;BME280;47427;51.976;5.326;2023-05-19T03:20:17;102625.97;;;6.83;100.00
45403;BME280;47427;51.976;5.326;2023-05-19T03:23:39;102627.47;;;6.79;100.00
45403;BME280;47427;51.976;5.326;2023-05-19T03:27:03;102616.50;;;6.71;100.00
45403;BME280;47427;51.976;5.326;2023-05-19T03:30:27;102617.19;;;6.69;100.00
45403;BME280;47427;51.976;5.326;2023-05-19T03:34:06;102626.31;;;6.76;100.00
45403;BME280;47427;51.976;5.326;2023-05-19T03:37:28;102628.03;;;6.75;100.00
45403;BME280;47427;51.976;5.326;2023-05-19T03:40:50;102627.59;;;6.69;100.00
45403;BME280;47427;51.976;5.326;2023-05-19T03:44:13;102623.41;;;6.71;100.00
45403;BME280;47427;51.976;5.326;2023-05-19T03:47:35;102615.69;;;6.72;100.00
45403;BME280;47427;51.976;5.326;2023-05-19T03:51:05;102618.88;;;6.68;100.00
45403;BME280;47427;51.976;5.326;2023-05-19T03:54:26;102620.56;;;6.68;100.00
45403;BME280;47427;51.976;5.326;2023-05-19T03:57:48;102622.47;;;6.70;100.00
45403;BME280;47427;51.976;5.326;2023-05-19T04:01:12;102617.25;;;6.70;100.00
45403;BME280;47427;51.976;5.326;2023-05-19T04:04:33;102631.31;;;6.72;100.00
45403;BME280;47427;51.976;5.326;2023-05-19T04:07:56;102621.59;;;6.70;100.00
45403;BME280;47427;51.976;5.326;2023-05-19T04:11:18;102627.59;;;6.69;100.00
45403;BME280;47427;51.976;5.326;2023-05-19T04:14:41;102624.53;;;6.75;100.00
45403;BME280;47427;51.976;5.326;2023-05-19T04:18:04;102632.34;;;6.75;100.00
45403;BME280;47427;51.976;5.326;2023-05-19T04:21:27;102631.66;;;6.77;100.00
45403;BME280;47427;51.976;5.326;2023-05-19T04:24:50;102627.34;;;6.78;100.00
45403;BME280;47427;51.976;5.326;2023-05-19T04:28:14;102632.06;;;6.83;100.00
45403;BME280;47427;51.976;5.326;2023-05-19T04:31:36;102640.84;;;6.84;100.00
45403;BME280;47427;51.976;5.326;2023-05-19T04:35:01;102642.97;;;6.89;100.00
45403;BME280;47427;51.976;5.326;2023-05-19T04:38:23;102641.25;;;6.90;100.00
45403;BME280;47427;51.976;5.326;2023-05-19T04:41:46;102638.34;;;6.99;100.00
45403;BME280;47427;51.976;5.326;2023-05-19T04:45:27;102633.38;;;7.02;100.00
45403;BME280;47427;51.976;5.326;2023-05-19T04:48:53;102641.72;;;7.09;100.00
45403;BME280;47427;51.976;5.326;2023-05-19T04:52:16;102637.50;;;7.11;100.00
45403;BME280;47427;51.976;5.326;2023-05-19T04:55:43;102642.97;;;7.14;100.00
45403;BME280;47427;51.976;5.326;2023-05-19T04:59:08;102650.63;;;7.25;100.00
45403;BME280;47427;51.976;5.326;2023-05-19T05:02:31;102646.69;;;7.31;100.00
45403;BME280;47427;51.976;5.326;2023-05-19T05:05:54;102648.25;;;7.41;100.00
45403;BME280;47427;51.976;5.326;2023-05-19T05:09:17;102647.03;;;7.49;100.00
45403;BME280;47427;51.976;5.326;2023-05-19T05:12:41;102649.19;;;7.55;100.00
45403;BME280;47427;51.976;5.326;2023-05-19T05:16:03;102650.91;;;7.68;100.00
45403;BME280;47427;51.976;5.326;2023-05-19T05:19:28;102655.13;;;7.79;100.00
45403;BME280;47427;51.976;5.326;2023-05-19T05:22:51;102660.47;;;7.94;100.00
45403;BME280;47427;51.976;5.326;2023-05-19T05:26:19;102652.63;;;7.94;100.00
45403;BME280;47427;51.976;5.326;2023-05-19T05:29:47;102661.38;;;8.21;100.00
45403;BME280;47427;51.976;5.326;2023-05-19T05:33:09;102655.31;;;8.35;100.00
45403;BME280;47427;51.976;5.326;2023-05-19T05:36:35;102651.00;;;8.49;100.00
45403;BME280;47427;51.976;5.326;2023-05-19T05:39:58;102646.75;;;8.64;100.00
45403;BME280;47427;51.976;5.326;2023-05-19T05:43:19;102641.56;;;8.79;100.00
45403;BME280;47427;51.976;5.326;2023-05-19T05:47:02;102655.97;;;9.01;100.00
45403;BME280;47427;51.976;5.326;2023-05-19T05:50:24;102655.28;;;9.18;100.00
45403;BME280;47427;51.976;5.326;2023-05-19T05:53:52;102655.22;;;9.31;100.00
45403;BME280;47427;51.976;5.326;2023-05-19T05:57:21;102659.31;;;9.56;100.00
45403;BME280;47427;51.976;5.326;2023-05-19T06:00:44;102654.97;;;9.71;100.00
45403;BME280;47427;51.976;5.326;2023-05-19T06:04:10;102655.50;;;9.95;100.00
45403;BME280;47427;51.976;5.326;2023-05-19T06:07:33;102656.66;;;10.15;100.00
45403;BME280;47427;51.976;5.326;2023-05-19T06:10:54;102645.03;;;10.27;100.00
45403;BME280;47427;51.976;5.326;2023-05-19T06:14:16;102653.16;;;10.46;100.00
45403;BME280;47427;51.976;5.326;2023-05-19T06:18:00;102654.59;;;10.72;100.00
45403;BME280;47427;51.976;5.326;2023-05-19T06:21:22;102649.50;;;10.75;100.00
45403;BME280;47427;51.976;5.326;2023-05-19T06:24:44;102647.06;;;10.95;100.00
45403;BME280;47427;51.976;5.326;2023-05-19T06:28:07;102653.38;;;11.15;100.00
45403;BME280;47427;51.976;5.326;2023-05-19T06:31:30;102654.22;;;11.32;100.00
45403;BME280;47427;51.976;5.326;2023-05-19T06:35:03;102650.69;;;11.47;100.00
45403;BME280;47427;51.976;5.326;2023-05-19T06:38:45;102657.13;;;11.70;100.00
45403;BME280;47427;51.976;5.326;2023-05-19T06:42:08;102644.84;;;11.87;100.00
45403;BME280;47427;51.976;5.326;2023-05-19T06:45:55;102648.81;;;11.97;100.00
45403;BME280;47427;51.976;5.326;2023-05-19T06:49:19;102645.44;;;12.18;100.00
45403;BME280;47427;51.976;5.326;2023-05-19T06:52:42;102641.56;;;12.47;99.46
45403;BME280;47427;51.976;5.326;2023-05-19T06:56:05;102645.16;;;12.67;98.20
45403;BME280;47427;51.976;5.326;2023-05-19T06:59:29;102650.06;;;12.78;97.54
45403;BME280;47427;51.976;5.326;2023-05-19T07:02:53;102650.06;;;12.98;96.88
45403;BME280;47427;51.976;5.326;2023-05-19T07:06:35;102660.97;;;13.25;95.31
45403;BME280;47427;51.976;5.326;2023-05-19T07:10:17;102661.34;;;13.75;93.78
45403;BME280;47427;51.976;5.326;2023-05-19T07:13:40;102653.19;;;14.11;91.74
45403;BME280;47427;51.976;5.326;2023-05-19T07:17:04;102649.06;;;14.40;90.23
45403;BME280;47427;51.976;5.326;2023-05-19T07:20:26;102646.78;;;14.49;88.61
45403;BME280;47427;51.976;5.326;2023-05-19T07:23:50;102643.13;;;14.68;87.62
45403;BME280;47427;51.976;5.326;2023-05-19T07:27:13;102656.31;;;14.90;84.74
45403;BME280;47427;51.976;5.326;2023-05-19T07:30:34;102659.72;;;15.60;81.78
45403;BME280;47427;51.976;5.326;2023-05-19T07:33:57;102682.81;;;17.33;65.17
45403;BME280;47427;51.976;5.326;2023-05-19T07:37:19;102738.31;;;19.87;58.17
45403;BME280;47427;51.976;5.326;2023-05-19T07:40:41;102768.31;;;21.45;52.86
45403;BME280;47427;51.976;5.326;2023-05-19T07:44:04;102795.97;;;22.34;49.80
45403;BME280;47427;51.976;5.326;2023-05-19T07:47:29;102803.63;;;23.05;47.58
45403;BME280;47427;51.976;5.326;2023-05-19T07:50:52;102839.59;;;23.58;44.51
45403;BME280;47427;51.976;5.326;2023-05-19T07:54:14;102890.81;;;24.93;40.54
45403;BME280;47427;51.976;5.326;2023-05-19T07:57:36;102910.69;;;26.71;38.15
45403;BME280;47427;51.976;5.326;2023-05-19T08:00:59;102925.81;;;26.87;37.08
45403;BME280;47427;51.976;5.326;2023-05-19T08:04:20;102923.88;;;27.03;35.89
45403;BME280;47427;51.976;5.326;2023-05-19T08:07:43;102924.94;;;27.73;35.48
45403;BME280;47427;51.976;5.326;2023-05-19T08:11:06;102949.16;;;28.46;33.63
45403;BME280;47427;51.976;5.326;2023-05-19T08:14:48;102986.41;;;28.19;31.75
45403;BME280;47427;51.976;5.326;2023-05-19T08:18:11;102998.91;;;29.41;30.32
45403;BME280;47427;51.976;5.326;2023-05-19T08:21:32;103023.25;;;29.91;27.83
45403;BME280;47427;51.976;5.326;2023-05-19T08:24:56;103024.25;;;31.75;27.26
45403;BME280;47427;51.976;5.326;2023-05-19T08:28:19;103046.81;;;31.77;26.81
45403;BME280;47427;51.976;5.326;2023-05-19T08:31:41;103072.66;;;32.23;25.05
45403;BME280;47427;51.976;5.326;2023-05-19T08:35:04;103096.47;;;34.56;22.56
45403;BME280;47427;51.976;5.326;2023-05-19T08:38:26;103125.84;;;35.81;21.51
45403;BME280;47427;51.976;5.326;2023-05-19T08:41:48;103143.38;;;35.55;20.66
45403;BME280;47427;51.976;5.326;2023-05-19T08:45:11;103140.72;;;35.95;20.15
45403;BME280;47427;51.976;5.326;2023-05-19T08:48:34;103141.66;;;36.54;19.86
45403;BME280;47427;51.976;5.326;2023-05-19T08:52:24;103154.22;;;37.34;19.26
45403;BME280;47427;51.976;5.326;2023-05-19T08:56:01;103161.78;;;38.50;18.23
45403;BME280;47427;51.976;5.326;2023-05-19T08:59:25;103184.91;;;38.11;17.54
45403;BME280;47427;51.976;5.326;2023-05-19T09:02:48;103171.00;;;37.99;17.32
45403;BME280;47427;51.976;5.326;2023-05-19T09:06:11;103170.38;;;37.92;16.81
45403;BME280;47427;51.976;5.326;2023-05-19T09:09:34;103172.34;;;38.07;16.79
45403;BME280;47427;51.976;5.326;2023-05-19T09:12:57;103144.97;;;36.02;18.05
45403;BME280;47427;51.976;5.326;2023-05-19T09:16:19;103152.94;;;36.66;17.46
45403;BME280;47427;51.976;5.326;2023-05-19T09:19:43;103157.84;;;37.34;17.08
45403;BME280;47427;51.976;5.326;2023-05-19T09:23:13;103121.75;;;35.92;18.35
45403;BME280;47427;51.976;5.326;2023-05-19T09:26:41;103161.22;;;37.76;16.23
45403;BME280;47427;51.976;5.326;2023-05-19T09:30:07;103153.75;;;39.11;15.90
45403;BME280;47427;51.976;5.326;2023-05-19T09:33:32;103131.03;;;37.41;17.41
45403;BME280;47427;51.976;5.326;2023-05-19T09:36:56;103142.84;;;36.29;17.43
45403;BME280;47427;51.976;5.326;2023-05-19T09:40:19;103125.59;;;35.45;17.38
45403;BME280;47427;51.976;5.326;2023-05-19T09:43:42;103112.63;;;36.32;17.42
45403;BME280;47427;51.976;5.326;2023-05-19T09:47:04;103105.31;;;36.52;17.72
45403;BME280;47427;51.976;5.326;2023-05-19T09:50:29;103127.28;;;37.61;15.85
45403;BME280;47427;51.976;5.326;2023-05-19T09:53:52;103139.13;;;37.79;16.60
45403;BME280;47427;51.976;5.326;2023-05-19T09:57:15;103144.69;;;37.60;16.22
45403;BME280;47427;51.976;5.326;2023-05-19T10:00:37;103141.88;;;37.79;15.56
45403;BME280;47427;51.976;5.326;2023-05-19T10:04:00;103143.97;;;37.56;15.81
45403;BME280;47427;51.976;5.326;2023-05-19T10:07:24;103141.50;;;37.33;15.89
45403;BME280;47427;51.976;5.326;2023-05-19T10:10:46;103144.19;;;36.96;15.87
45403;BME280;47427;51.976;5.326;2023-05-19T10:14:09;103122.06;;;36.25;17.46
45403;BME280;47427;51.976;5.326;2023-05-19T10:17:31;103122.22;;;37.17;15.83
45403;BME280;47427;51.976;5.326;2023-05-19T10:20:56;103161.09;;;38.63;14.04
45403;BME280;47427;51.976;5.326;2023-05-19T10:24:20;103162.38;;;40.68;13.85
45403;BME280;47427;51.976;5.326;2023-05-19T10:28:12;103189.09;;;41.49;13.12
45403;BME280;47427;51.976;5.326;2023-05-19T10:31:36;103184.38;;;41.51;12.47
45403;BME280;47427;51.976;5.326;2023-05-19T10:35:43;103183.34;;;41.79;12.86
45403;BME280;47427;51.976;5.326;2023-05-19T10:39:19;103201.16;;;42.01;12.17
45403;BME280;47427;51.976;5.326;2023-05-19T10:46:28;103194.66;;;43.03;11.68
45403;BME280;47427;51.976;5.326;2023-05-19T10:49:52;103200.22;;;43.14;11.91
45403;BME280;47427;51.976;5.326;2023-05-19T10:53:18;103192.72;;;43.64;11.32
45403;BME280;47427;51.976;5.326;2023-05-19T10:56:43;103203.88;;;43.63;10.83
45403;BME280;47427;51.976;5.326;2023-05-19T11:00:27;103230.69;;;42.89;11.11
45403;BME280;47427;51.976;5.326;2023-05-19T11:03:54;103214.13;;;41.86;10.78
45403;BME280;47427;51.976;5.326;2023-05-19T11:07:20;103196.53;;;42.02;11.74
45403;BME280;47427;51.976;5.326;2023-05-19T11:10:45;103180.34;;;42.85;11.06
45403;BME280;47427;51.976;5.326;2023-05-19T11:14:10;103204.25;;;42.48;10.67
45403;BME280;47427;51.976;5.326;2023-05-19T11:17:34;103194.41;;;43.54;10.74
45403;BME280;47427;51.976;5.326;2023-05-19T11:20:59;103193.50;;;44.24;10.47
45403;BME280;47427;51.976;5.326;2023-05-19T11:24:43;103210.16;;;43.17;10.89
45403;BME280;47427;51.976;5.326;2023-05-19T11:28:06;103182.59;;;42.29;10.95
45403;BME280;47427;51.976;5.326;2023-05-19T11:31:29;103178.91;;;41.77;10.91
45403;BME280;47427;51.976;5.326;2023-05-19T11:34:52;103191.97;;;42.26;10.85
45403;BME280;47427;51.976;5.326;2023-05-19T11:38:17;103171.06;;;40.89;11.44
45403;BME280;47427;51.976;5.326;2023-05-19T11:41:40;103131.41;;;40.50;12.33
45403;BME280;47427;51.976;5.326;2023-05-19T11:45:03;103158.06;;;41.06;10.95
45403;BME280;47427;51.976;5.326;2023-05-19T11:48:26;103151.91;;;42.46;11.10
45403;BME280;47427;51.976;5.326;2023-05-19T11:51:50;103152.41;;;43.49;10.66
45403;BME280;47427;51.976;5.326;2023-05-19T11:55:18;103169.66;;;42.80;10.74
45403;BME280;47427;51.976;5.326;2023-05-19T11:58:44;103175.16;;;42.80;10.42
45403;BME280;47427;51.976;5.326;2023-05-19T12:02:22;103172.56;;;43.27;9.96
45403;BME280;47427;51.976;5.326;2023-05-19T12:05:47;103168.41;;;43.57;10.05
45403;BME280;47427;51.976;5.326;2023-05-19T12:09:10;103171.94;;;40.34;10.75
45403;BME280;47427;51.976;5.326;2023-05-19T12:12:32;103157.47;;;41.15;10.51
45403;BME280;47427;51.976;5.326;2023-05-19T12:15:59;103168.47;;;42.08;10.16
45403;BME280;47427;51.976;5.326;2023-05-19T12:19:23;103154.78;;;42.57;10.46
45403;BME280;47427;51.976;5.326;2023-05-19T12:22:47;103152.63;;;41.04;10.94
45403;BME280;47427;51.976;5.326;2023-05-19T12:26:10;103118.13;;;40.00;12.35
45403;BME280;47427;51.976;5.326;2023-05-19T12:29:32;103093.16;;;39.74;13.21
45403;BME280;47427;51.976;5.326;2023-05-19T12:32:55;103108.84;;;39.12;11.98
45403;BME280;47427;51.976;5.326;2023-05-19T12:36:23;103086.97;;;37.80;13.63
45403;BME280;47427;51.976;5.326;2023-05-19T12:39:47;103063.84;;;36.42;13.87
45403;BME280;47427;51.976;5.326;2023-05-19T12:43:22;103049.59;;;35.14;14.97
45403;BME280;47427;51.976;5.326;2023-05-19T12:46:44;103019.03;;;34.62;15.71
45403;BME280;47427;51.976;5.326;2023-05-19T12:50:08;103011.78;;;34.83;15.32
45403;BME280;47427;51.976;5.326;2023-05-19T12:53:32;103009.81;;;35.29;15.28
45403;BME280;47427;51.976;5.326;2023-05-19T12:56:58;103002.38;;;36.87;15.16
45403;BME280;47427;51.976;5.326;2023-05-19T13:00:21;103018.88;;;38.06;13.59
45403;BME280;47427;51.976;5.326;2023-05-19T13:03:46;103030.94;;;38.19;13.18
45403;BME280;47427;51.976;5.326;2023-05-19T13:07:08;103029.09;;;36.82;13.61
45403;BME280;47427;51.976;5.326;2023-05-19T13:10:33;103003.84;;;35.62;14.86
45403;BME280;47427;51.976;5.326;2023-05-19T13:13:54;103002.25;;;35.76;15.13
45403;BME280;47427;51.976;5.326;2023-05-19T13:17:19;103001.13;;;36.39;14.75
45403;BME280;47427;51.976;5.326;2023-05-19T13:20:43;103004.91;;;37.61;13.65
45403;BME280;47427;51.976;5.326;2023-05-19T13:24:05;103013.31;;;38.07;13.63
45403;BME280;47427;51.976;5.326;2023-05-19T13:27:27;103010.59;;;38.71;13.38
45403;BME280;47427;51.976;5.326;2023-05-19T13:30:50;103007.44;;;38.47;13.40
45403;BME280;47427;51.976;5.326;2023-05-19T13:34:12;103007.00;;;37.56;13.80
45403;BME280;47427;51.976;5.326;2023-05-19T13:37:35;102993.91;;;36.74;13.85
45403;BME280;47427;51.976;5.326;2023-05-19T13:40:56;102986.72;;;37.76;14.09
45403;BME280;47427;51.976;5.326;2023-05-19T13:44:19;102986.44;;;38.30;14.59
45403;BME280;47427;51.976;5.326;2023-05-19T13:47:42;102987.22;;;38.64;13.39
45403;BME280;47427;51.976;5.326;2023-05-19T13:51:03;102990.09;;;38.62;13.31
45403;BME280;47427;51.976;5.326;2023-05-19T13:54:26;103004.69;;;39.09;12.50
45403;BME280;47427;51.976;5.326;2023-05-19T13:57:49;103010.97;;;39.11;12.50
45403;BME280;47427;51.976;5.326;2023-05-19T14:01:10;103004.50;;;37.85;13.14
45403;BME280;47427;51.976;5.326;2023-05-19T14:04:37;102999.81;;;38.04;13.38
45403;BME280;47427;51.976;5.326;2023-05-19T14:08:19;103003.13;;;38.89;12.64
45403;BME280;47427;51.976;5.326;2023-05-19T14:11:42;103007.97;;;39.30;12.08
45403;BME280;47427;51.976;5.326;2023-05-19T14:15:05;102994.31;;;38.68;12.87
45403;BME280;47427;51.976;5.326;2023-05-19T14:18:28;103001.03;;;38.14;12.77
45403;BME280;47427;51.976;5.326;2023-05-19T14:21:50;102981.84;;;37.99;13.54
45403;BME280;47427;51.976;5.326;2023-05-19T14:25:12;102970.44;;;38.06;13.56
45403;BME280;47427;51.976;5.326;2023-05-19T14:28:35;102972.63;;;38.15;13.31
45403;BME280;47427;51.976;5.326;2023-05-19T14:31:57;102960.81;;;38.47;13.35
45403;BME280;47427;51.976;5.326;2023-05-19T14:35:19;102958.50;;;36.88;14.26
45403;BME280;47427;51.976;5.326;2023-05-19T14:38:41;102946.41;;;38.11;13.48
45403;BME280;47427;51.976;5.326;2023-05-19T14:42:03;102945.91;;;38.67;13.31
45403;BME280;47427;51.976;5.326;2023-05-19T14:45:26;102954.06;;;38.21;13.44
45403;BME280;47427;51.976;5.326;2023-05-19T14:48:48;102951.06;;;38.57;13.08
45403;BME280;47427;51.976;5.326;2023-05-19T14:52:10;102953.31;;;39.11;13.28
45403;BME280;47427;51.976;5.326;2023-05-19T14:55:33;102952.56;;;38.63;13.11
45403;BME280;47427;51.976;5.326;2023-05-19T14:58:55;102937.03;;;37.66;13.60
45403;BME280;47427;51.976;5.326;2023-05-19T15:02:17;102935.03;;;38.33;13.14
45403;BME280;47427;51.976;5.326;2023-05-19T15:05:39;102957.16;;;38.30;13.22
45403;BME280;47427;51.976;5.326;2023-05-19T15:09:01;102946.63;;;38.38;13.08
45403;BME280;47427;51.976;5.326;2023-05-19T15:12:24;102938.03;;;38.61;13.19
45403;BME280;47427;51.976;5.326;2023-05-19T15:15:47;102929.63;;;39.53;13.31
45403;BME280;47427;51.976;5.326;2023-05-19T15:19:08;102947.28;;;39.77;12.74
45403;BME280;47427;51.976;5.326;2023-05-19T15:22:31;102941.59;;;39.66;13.22
45403;BME280;47427;51.976;5.326;2023-05-19T15:25:54;102936.03;;;38.78;13.31
45403;BME280;47427;51.976;5.326;2023-05-19T15:29:15;102921.97;;;38.69;13.26
45403;BME280;47427;51.976;5.326;2023-05-19T15:32:38;102930.75;;;37.14;13.78
45403;BME280;47427;51.976;5.326;2023-05-19T15:36:01;102915.97;;;38.00;13.91
45403;BME280;47427;51.976;5.326;2023-05-19T15:39:23;102906.03;;;36.63;15.01
45403;BME280;47427;51.976;5.326;2023-05-19T15:42:46;102883.63;;;35.43;16.16
45403;BME280;47427;51.976;5.326;2023-05-19T15:46:07;102860.94;;;33.94;17.10
45403;BME280;47427;51.976;5.326;2023-05-19T15:49:30;102847.94;;;33.07;17.69
45403;BME280;47427;51.976;5.326;2023-05-19T15:53:11;102813.91;;;29.50;20.17
45403;BME280;47427;51.976;5.326;2023-05-19T15:56:34;102788.16;;;29.74;20.62
45403;BME280;47427;51.976;5.326;2023-05-19T15:59:57;102781.22;;;32.20;19.30
45403;BME280;47427;51.976;5.326;2023-05-19T16:03:18;102807.47;;;32.97;17.73
45403;BME280;47427;51.976;5.326;2023-05-19T16:06:43;102799.59;;;33.38;17.31
45403;BME280;47427;51.976;5.326;2023-05-19T16:10:07;102810.53;;;32.88;17.07
45403;BME280;47427;51.976;5.326;2023-05-19T16:13:28;102797.53;;;32.71;18.23
45403;BME280;47427;51.976;5.326;2023-05-19T16:16:52;102795.06;;;32.65;17.92
45403;BME280;47427;51.976;5.326;2023-05-19T16:20:14;102794.78;;;31.34;18.79
45403;BME280;47427;51.976;5.326;2023-05-19T16:23:36;102766.81;;;29.60;20.06
45403;BME280;47427;51.976;5.326;2023-05-19T16:26:59;102726.84;;;28.89;21.50
45403;BME280;47427;51.976;5.326;2023-05-19T16:30:20;102728.06;;;28.26;21.69
45403;BME280;47427;51.976;5.326;2023-05-19T16:33:44;102699.91;;;27.29;22.95
45403;BME280;47427;51.976;5.326;2023-05-19T16:37:07;102690.91;;;26.57;23.74
45403;BME280;47427;51.976;5.326;2023-05-19T16:40:29;102672.16;;;25.40;25.07
45403;BME280;47427;51.976;5.326;2023-05-19T16:43:51;102656.47;;;24.30;27.08
45403;BME280;47427;51.976;5.326;2023-05-19T16:47:14;102652.03;;;23.75;27.39
45403;BME280;47427;51.976;5.326;2023-05-19T16:50:36;102627.94;;;23.73;27.64
45403;BME280;47427;51.976;5.326;2023-05-19T16:54:19;102619.84;;;24.13;27.75
45403;BME280;47427;51.976;5.326;2023-05-19T16:57:41;102614.41;;;24.39;27.11
45403;BME280;47427;51.976;5.326;2023-05-19T17:01:04;102612.66;;;24.15;26.86
45403;BME280;47427;51.976;5.326;2023-05-19T17:04:26;102613.59;;;23.48;27.81
45403;BME280;47427;51.976;5.326;2023-05-19T17:07:48;102601.94;;;23.22;28.54
45403;BME280;47427;51.976;5.326;2023-05-19T17:11:10;102600.19;;;23.14;28.42
45403;BME280;47427;51.976;5.326;2023-05-19T17:14:32;102601.03;;;23.10;28.76
45403;BME280;47427;51.976;5.326;2023-05-19T17:17:54;102585.91;;;23.39;29.25
45403;BME280;47427;51.976;5.326;2023-05-19T17:21:17;102584.13;;;23.64;28.79
45403;BME280;47427;51.976;5.326;2023-05-19T17:24:38;102588.56;;;23.65;28.87
45403;BME280;47427;51.976;5.326;2023-05-19T17:28:01;102586.81;;;23.30;28.58
45403;BME280;47427;51.976;5.326;2023-05-19T17:31:24;102590.22;;;22.86;28.64
45403;BME280;47427;51.976;5.326;2023-05-19T17:34:45;102581.19;;;22.44;29.34
45403;BME280;47427;51.976;5.326;2023-05-19T17:38:08;102562.09;;;21.89;30.43
45403;BME280;47427;51.976;5.326;2023-05-19T17:41:31;102545.75;;;21.46;31.50
45403;BME280;47427;51.976;5.326;2023-05-19T17:44:52;102528.78;;;21.39;32.56
45403;BME280;47427;51.976;5.326;2023-05-19T17:48:15;102523.22;;;21.19;32.49
45403;BME280;47427;51.976;5.326;2023-05-19T17:51:37;102517.97;;;21.27;32.60
45403;BME280;47427;51.976;5.326;2023-05-19T17:55:00;102512.59;;;21.22;32.96
45403;BME280;47427;51.976;5.326;2023-05-19T17:58:23;102513.41;;;21.12;32.14
45403;BME280;47427;51.976;5.326;2023-05-19T18:01:45;102523.94;;;20.96;31.97
45403;BME280;47427;51.976;5.326;2023-05-19T18:05:09;102515.56;;;20.63;32.69
45403;BME280;47427;51.976;5.326;2023-05-19T18:08:32;102497.50;;;20.43;34.92